Time,TemperatureF,DewpointF,PressureIn,WindDirection,WindDirectionDegrees,WindSpeedMPH,WindSpeedGustMPH,Humidity,HourlyPrecipIn,Conditions,Clouds,dailyrainin,SoftwareType,DateUTC
2013-06-22 00:01:00,75.8,75.8,30.21,East,85,3.0,7.0,100,0.00,,---,0.00,VWS V14.00,2013-06-22 04:01:00,
2013-06-22 00:02:00,75.9,75.9,30.21,ESE,104,1.0,7.0,100,0.00,,---,0.00,VWS V14.00,2013-06-22 04:02:00,
2013-06-22 00:06:00,75.8,75.8,30.21,ESE,102,3.0,8.0,100,0.00,,---,0.00,VWS V14.00,2013-06-22 04:06:00,
2013-06-22 00:12:00,75.9,75.9,30.21,ESE,123,5.0,10.0,100,0.00,,---,0.00,VWS V14.00,2013-06-22 04:12:00,
2013-06-22 00:17:00,75.8,75.8,30.21,East,92,4.0,10.0,100,0.00,,---,0.00,VWS V14.00,2013-06-22 04:17:00,
2013-06-22 00:21:00,75.8,75.8,30.21,East,97,3.0,10.0,100,0.00,,---,0.00,VWS V14.00,2013-06-22 04:21:00,
2013-06-22 00:26:00,75.8,75.8,30.21,ESE,102,0.0,10.0,100,0.00,,---,0.00,VWS V14.00,2013-06-22 04:26:00,
2013-06-22 00:32:00,75.8,75.8,30.21,East,92,0.0,6.0,100,0.00,,---,0.00,VWS V14.00,2013-06-22 04:32:00,
2013-06-22 00:36:00,75.7,75.7,30.21,ESE,104,0.0,6.0,100,0.00,,---,0.00,VWS V14.00,2013-06-22 04:36:00,
2013-06-22 00:42:00,75.7,75.7,30.21,ESE,106,5.0,6.0,100,0.00,,---,0.00,VWS V14.00,2013-06-22 04:42:00,
2013-06-22 00:47:00,75.6,75.6,30.21,ESE,111,0.0,8.0,100,0.00,,---,0.00,VWS V14.00,2013-06-22 04:47:00,
2013-06-22 00:52:00,75.6,75.6,30.20,ESE,107,5.0,8.0,100,0.00,,---,0.00,VWS V14.00,2013-06-22 04:52:00,
2013-06-22 00:56:00,75.6,75.6,30.20,ESE,102,5.0,8.0,100,0.00,,---,0.00,VWS V14.00,2013-06-22 04:56:00,
2013-06-22 01:01:00,75.5,75.5,30.20,ESE,108,5.0,7.0,100,0.00,,---,0.00,VWS V14.00,2013-06-22 05:01:00,
2013-06-22 01:06:00,75.5,75.5,30.20,ESE,120,0.0,8.0,100,0.00,,---,0.00,VWS V14.00,2013-06-22 05:06:00,
2013-06-22 01:11:00,75.5,75.5,30.20,ESE,108,6.0,8.0,100,0.00,,---,0.00,VWS V14.00,2013-06-22 05:11:00,
2013-06-22 01:16:00,75.5,75.5,30.20,ESE,113,2.0,10.0,100,0.00,,---,0.00,VWS V14.00,2013-06-22 05:16:00,
2013-06-22 01:21:00,75.4,75.4,30.20,ESE,116,5.0,10.0,100,0.00,,---,0.00,VWS V14.00,2013-06-22 05:21:00,
2013-06-22 01:26:00,75.5,75.5,30.20,SE,129,1.0,10.0,100,0.00,,---,0.00,VWS V14.00,2013-06-22 05:26:00,
2013-06-22 01:31:00,75.4,75.4,30.20,ESE,119,6.0,7.0,100,0.00,,---,0.00,VWS V14.00,2013-06-22 05:31:00,
2013-06-22 01:36:00,75.4,75.4,30.20,East,99,1.0,10.0,100,0.00,,---,0.00,VWS V14.00,2013-06-22 05:36:00,
2013-06-22 01:41:00,75.5,75.5,30.20,ESE,119,5.0,10.0,100,0.00,,---,0.00,VWS V14.00,2013-06-22 05:41:00,
2013-06-22 01:46:00,75.5,75.5,30.20,SSE,151,7.0,10.0,100,0.00,,---,0.00,VWS V14.00,2013-06-22 05:46:00,
2013-06-22 01:51:00,75.5,75.5,30.20,ESE,123,7.0,10.0,100,0.00,,---,0.00,VWS V14.00,2013-06-22 05:51:00,
2013-06-22 01:56:00,75.6,75.6,30.20,SE,130,8.0,10.0,100,0.00,,---,0.00,VWS V14.00,2013-06-22 05:56:00,
2013-06-22 02:01:00,75.6,75.6,30.20,ESE,121,5.0,8.0,100,0.00,,---,0.00,VWS V14.00,2013-06-22 06:01:00,
2013-06-22 02:06:00,75.6,75.6,30.21,ESE,117,5.0,10.0,100,0.00,,---,0.00,VWS V14.00,2013-06-22 06:06:00,
2013-06-22 02:11:00,75.7,75.7,30.20,ESE,108,2.0,10.0,100,0.00,,---,0.00,VWS V14.00,2013-06-22 06:11:00,
2013-06-22 02:16:00,75.7,75.7,30.20,ESE,110,2.0,10.0,100,0.00,,---,0.00,VWS V14.00,2013-06-22 06:16:00,
2013-06-22 02:21:00,75.7,75.7,30.20,ESE,121,4.0,10.0,100,0.00,,---,0.00,VWS V14.00,2013-06-22 06:21:00,
2013-06-22 02:26:00,75.7,75.7,30.20,SE,125,2.0,10.0,100,0.00,,---,0.00,VWS V14.00,2013-06-22 06:26:00,
2013-06-22 02:31:00,75.7,75.7,30.20,ESE,109,5.0,11.0,100,0.00,,---,0.00,VWS V14.00,2013-06-22 06:31:00,
2013-06-22 02:36:00,75.7,75.7,30.20,SSE,167,9.0,19.0,100,0.00,,---,0.00,VWS V14.00,2013-06-22 06:36:00,
2013-06-22 02:41:00,75.4,75.1,30.20,SSE,168,10.0,21.0,99,0.00,,---,0.00,VWS V14.00,2013-06-22 06:41:00,
2013-06-22 02:46:00,75.1,74.5,30.20,South,171,10.0,22.0,98,0.00,,---,0.00,VWS V14.00,2013-06-22 06:46:00,
2013-06-22 02:51:00,74.9,74.3,30.20,South,171,11.0,22.0,98,0.00,,---,0.00,VWS V14.00,2013-06-22 06:51:00,
2013-06-22 02:56:00,74.6,74.3,30.20,South,183,8.0,22.0,99,0.00,,---,0.00,VWS V14.00,2013-06-22 06:56:00,
2013-06-22 03:01:00,74.4,74.4,30.19,South,174,14.0,18.0,100,0.00,,---,0.00,VWS V14.00,2013-06-22 07:01:00,
2013-06-22 03:06:00,74.3,74.3,30.19,South,182,9.0,19.0,100,0.00,,---,0.00,VWS V14.00,2013-06-22 07:06:00,
2013-06-22 03:11:00,74.1,74.1,30.20,South,173,8.0,20.0,100,0.00,,---,0.00,VWS V14.00,2013-06-22 07:11:00,
2013-06-22 03:16:00,73.9,73.9,30.19,South,189,10.0,20.0,100,0.00,,---,0.00,VWS V14.00,2013-06-22 07:16:00,
2013-06-22 03:21:00,73.9,73.9,30.19,South,186,9.0,20.0,100,0.00,,---,0.00,VWS V14.00,2013-06-22 07:21:00,
2013-06-22 03:26:00,73.8,73.8,30.19,South,175,9.0,20.0,100,0.00,,---,0.00,VWS V14.00,2013-06-22 07:26:00,
2013-06-22 03:31:00,73.8,73.8,30.19,South,177,5.0,11.0,100,0.00,,---,0.00,VWS V14.00,2013-06-22 07:31:00,
2013-06-22 03:36:00,73.7,73.7,30.19,SSE,167,8.0,14.0,100,0.00,,---,0.00,VWS V14.00,2013-06-22 07:36:00,
2013-06-22 03:41:00,73.7,73.7,30.19,SSE,161,11.0,14.0,100,0.00,,---,0.00,VWS V14.00,2013-06-22 07:41:00,
2013-06-22 03:46:00,73.7,73.7,30.20,SSE,166,8.0,16.0,100,0.00,,---,0.00,VWS V14.00,2013-06-22 07:46:00,
2013-06-22 03:51:00,73.7,73.7,30.20,SSE,156,13.0,20.0,100,0.00,,---,0.00,VWS V14.00,2013-06-22 07:51:00,
2013-06-22 03:56:00,73.7,73.7,30.19,SSE,163,8.0,20.0,100,0.00,,---,0.00,VWS V14.00,2013-06-22 07:56:00,
2013-06-22 04:01:00,73.7,73.7,30.20,SE,146,6.0,13.0,100,0.00,,---,0.00,VWS V14.00,2013-06-22 08:01:00,
2013-06-22 04:06:00,73.6,73.6,30.20,SSE,151,12.0,15.0,100,0.00,,---,0.00,VWS V14.00,2013-06-22 08:06:00,
2013-06-22 04:11:00,73.6,73.6,30.19,SSE,166,6.0,15.0,100,0.00,,---,0.00,VWS V14.00,2013-06-22 08:11:00,
2013-06-22 04:16:00,73.6,73.6,30.19,SSE,165,9.0,15.0,100,0.01,,---,0.01,VWS V14.00,2013-06-22 08:16:00,
2013-06-22 04:21:00,73.5,73.5,30.19,South,173,5.0,15.0,100,0.01,,---,0.01,VWS V14.00,2013-06-22 08:21:00,
2013-06-22 04:26:00,73.4,73.4,30.20,SSE,168,10.0,15.0,100,0.02,,---,0.02,VWS V14.00,2013-06-22 08:26:00,
2013-06-22 04:31:00,73.4,73.4,30.19,South,173,5.0,11.0,100,0.03,,---,0.03,VWS V14.00,2013-06-22 08:31:00,
2013-06-22 04:36:00,73.3,73.3,30.19,SSE,154,7.0,13.0,100,0.03,,---,0.04,VWS V14.00,2013-06-22 08:36:00,
2013-06-22 04:41:00,73.3,73.3,30.19,SSE,158,7.0,13.0,100,0.03,,---,0.05,VWS V14.00,2013-06-22 08:41:00,
2013-06-22 04:46:00,73.2,73.2,30.20,SSE,150,12.0,14.0,100,0.04,,---,0.06,VWS V14.00,2013-06-22 08:46:00,
2013-06-22 04:51:00,73.2,73.2,30.20,South,172,4.0,14.0,100,0.04,,---,0.07,VWS V14.00,2013-06-22 08:51:00,
2013-06-22 04:56:00,73.1,73.1,30.19,South,169,10.0,14.0,100,0.05,,---,0.08,VWS V14.00,2013-06-22 08:56:00,
2013-06-22 05:01:00,73.1,73.1,30.20,SSE,158,6.0,13.0,100,0.06,,---,0.09,VWS V14.00,2013-06-22 09:01:00,
2013-06-22 05:06:00,73.1,73.1,30.20,South,176,8.0,13.0,100,0.06,,---,0.09,VWS V14.00,2013-06-22 09:06:00,
2013-06-22 05:11:00,73.1,73.1,30.20,SE,145,9.0,13.0,100,0.07,,---,0.10,VWS V14.00,2013-06-22 09:11:00,
2013-06-22 05:16:00,73.1,73.1,30.20,SSE,152,8.0,13.0,100,0.06,,---,0.10,VWS V14.00,2013-06-22 09:16:00,
2013-06-22 05:21:00,73.0,73.0,30.21,SSE,151,7.0,13.0,100,0.06,,---,0.11,VWS V14.00,2013-06-22 09:21:00,
2013-06-22 05:26:00,73.1,73.1,30.20,SSE,153,0.0,13.0,100,0.07,,---,0.12,VWS V14.00,2013-06-22 09:26:00,
2013-06-22 05:31:00,73.1,73.1,30.21,SE,140,0.0,10.0,100,0.06,,---,0.12,VWS V14.00,2013-06-22 09:31:00,
2013-06-22 05:36:00,73.0,73.0,30.21,SSE,156,13.0,17.0,100,0.07,,---,0.13,VWS V14.00,2013-06-22 09:36:00,
2013-06-22 05:41:00,73.0,73.0,30.20,SSE,161,9.0,17.0,100,0.06,,---,0.13,VWS V14.00,2013-06-22 09:41:00,
2013-06-22 05:46:00,73.0,73.0,30.20,SSE,150,9.0,17.0,100,0.07,,---,0.14,VWS V14.00,2013-06-22 09:46:00,
2013-06-22 05:51:00,72.9,72.9,30.21,SSE,150,10.0,17.0,100,0.07,,---,0.15,VWS V14.00,2013-06-22 09:51:00,
2013-06-22 05:56:00,72.9,72.9,30.21,SSE,157,5.0,17.0,100,0.07,,---,0.17,VWS V14.00,2013-06-22 09:56:00,
2013-06-22 06:01:00,72.8,72.8,30.21,SSE,161,7.0,12.0,100,0.09,,---,0.18,VWS V14.00,2013-06-22 10:01:00,
2013-06-22 06:06:00,72.8,72.8,30.21,SSE,167,3.0,12.0,100,0.09,,---,0.19,VWS V14.00,2013-06-22 10:06:00,
2013-06-22 06:11:00,72.7,72.7,30.21,South,176,0.0,12.0,100,0.10,,---,0.21,VWS V14.00,2013-06-22 10:11:00,
2013-06-22 06:16:00,72.6,72.6,30.20,SE,134,0.0,12.0,100,0.11,,---,0.23,VWS V14.00,2013-06-22 10:16:00,
2013-06-22 06:21:00,72.6,72.6,30.21,SE,135,0.0,12.0,100,0.12,,---,0.25,VWS V14.00,2013-06-22 10:21:00,
2013-06-22 06:26:00,72.5,72.5,30.21,SE,138,0.0,12.0,100,0.13,,---,0.27,VWS V14.00,2013-06-22 10:26:00,
2013-06-22 06:31:00,72.5,72.5,30.20,SE,139,0.0,0.0,100,0.13,,---,0.29,VWS V14.00,2013-06-22 10:31:00,
2013-06-22 06:36:00,72.5,72.5,30.21,SSE,164,0.0,0.0,100,0.13,,---,0.29,VWS V14.00,2013-06-22 10:36:00,
2013-06-22 06:41:00,72.6,72.6,30.21,SW,214,8.0,9.0,100,0.13,,---,0.30,VWS V14.00,2013-06-22 10:41:00,
2013-06-22 06:46:00,72.7,72.7,30.21,SSW,199,1.0,9.0,100,0.13,,---,0.31,VWS V14.00,2013-06-22 10:46:00,
2013-06-22 06:51:00,72.6,72.6,30.21,SSW,195,0.0,9.0,100,0.12,,---,0.31,VWS V14.00,2013-06-22 10:51:00,
2013-06-22 06:56:00,72.6,72.6,30.21,SSW,196,4.0,9.0,100,0.11,,---,0.31,VWS V14.00,2013-06-22 10:56:00,
2013-06-22 07:01:00,72.5,72.5,30.21,South,190,4.0,5.0,100,0.11,,---,0.32,VWS V14.00,2013-06-22 11:01:00,
2013-06-22 07:06:00,72.5,72.5,30.21,South,189,4.0,7.0,100,0.10,,---,0.32,VWS V14.00,2013-06-22 11:06:00,
2013-06-22 07:11:00,72.5,72.5,30.22,SSW,195,3.0,7.0,100,0.09,,---,0.33,VWS V14.00,2013-06-22 11:11:00,
2013-06-22 07:16:00,72.4,72.4,30.21,SSW,196,3.0,9.0,100,0.09,,---,0.33,VWS V14.00,2013-06-22 11:16:00,
2013-06-22 07:21:00,72.4,72.4,30.22,SSW,206,4.0,9.0,100,0.09,,---,0.33,VWS V14.00,2013-06-22 11:21:00,
2013-06-22 07:26:00,72.5,72.5,30.22,SSW,197,3.0,9.0,100,0.08,,---,0.33,VWS V14.00,2013-06-22 11:26:00,
2013-06-22 07:31:00,72.5,72.5,30.22,SSW,193,4.0,5.0,100,0.08,,---,0.34,VWS V14.00,2013-06-22 11:31:00,
2013-06-22 07:36:00,72.6,72.6,30.22,South,169,2.0,6.0,100,0.08,,---,0.34,VWS V14.00,2013-06-22 11:36:00,
2013-06-22 07:41:00,72.5,72.5,30.22,South,185,0.0,6.0,100,0.07,,---,0.34,VWS V14.00,2013-06-22 11:41:00,
2013-06-22 07:46:00,72.4,72.4,30.23,South,184,0.0,6.0,100,0.07,,---,0.34,VWS V14.00,2013-06-22 11:46:00,
2013-06-22 07:51:00,72.3,72.3,30.23,South,172,0.0,6.0,100,0.07,,---,0.35,VWS V14.00,2013-06-22 11:51:00,
2013-06-22 07:56:00,72.3,72.3,30.23,South,174,0.0,6.0,100,0.06,,---,0.35,VWS V14.00,2013-06-22 11:56:00,
2013-06-22 08:01:00,72.3,72.3,30.23,SSE,159,0.0,6.0,100,0.07,,---,0.36,VWS V14.00,2013-06-22 12:01:00,
2013-06-22 08:06:00,72.3,72.3,30.24,SSE,157,0.0,6.0,100,0.06,,---,0.36,VWS V14.00,2013-06-22 12:06:00,
2013-06-22 08:11:00,72.3,72.3,30.24,SSE,153,0.0,6.0,100,0.07,,---,0.37,VWS V14.00,2013-06-22 12:11:00,
2013-06-22 08:16:00,72.3,72.3,30.24,SSE,151,9.0,9.0,100,0.06,,---,0.37,VWS V14.00,2013-06-22 12:16:00,
2013-06-22 08:21:00,72.3,72.3,30.24,SE,143,0.0,11.0,100,0.07,,---,0.38,VWS V14.00,2013-06-22 12:21:00,
2013-06-22 08:26:00,72.2,72.2,30.23,SE,143,0.0,11.0,100,0.06,,---,0.38,VWS V14.00,2013-06-22 12:26:00,
2013-06-22 08:31:00,72.2,72.2,30.23,SSE,149,0.0,4.0,100,0.07,,---,0.39,VWS V14.00,2013-06-22 12:31:00,
2013-06-22 08:36:00,72.3,72.3,30.24,SE,131,4.0,8.0,100,0.06,,---,0.39,VWS V14.00,2013-06-22 12:36:00,
2013-06-22 08:41:00,72.3,72.3,30.24,SE,128,0.0,8.0,100,0.06,,---,0.39,VWS V14.00,2013-06-22 12:41:00,
2013-06-22 08:46:00,72.4,72.4,30.24,SSE,150,0.0,8.0,100,0.05,,---,0.39,VWS V14.00,2013-06-22 12:46:00,
2013-06-22 08:51:00,72.5,72.5,30.23,SSE,153,0.0,8.0,100,0.05,,---,0.39,VWS V14.00,2013-06-22 12:51:00,
2013-06-22 08:56:00,72.6,72.6,30.23,SSE,159,2.0,10.0,100,0.04,,---,0.39,VWS V14.00,2013-06-22 12:56:00,
2013-06-22 09:01:00,72.7,72.7,30.24,SSE,150,0.0,8.0,100,0.04,,---,0.39,VWS V14.00,2013-06-22 13:01:00,
2013-06-22 09:06:00,72.8,72.8,30.24,SSE,161,0.0,8.0,100,0.04,,---,0.39,VWS V14.00,2013-06-22 13:06:00,
2013-06-22 09:11:00,72.9,72.9,30.24,South,172,0.0,8.0,100,0.03,,---,0.39,VWS V14.00,2013-06-22 13:11:00,
2013-06-22 09:16:00,73.0,73.0,30.24,South,176,6.0,9.0,100,0.03,,---,0.39,VWS V14.00,2013-06-22 13:16:00,
2013-06-22 09:21:00,73.1,73.1,30.24,South,187,4.0,9.0,100,0.04,,---,0.40,VWS V14.00,2013-06-22 13:21:00,
2013-06-22 09:26:00,73.2,73.2,30.24,SSE,159,6.0,9.0,100,0.04,,---,0.40,VWS V14.00,2013-06-22 13:26:00,
2013-06-22 09:31:00,73.3,73.3,30.24,SSE,151,5.0,5.0,100,0.03,,---,0.40,VWS V14.00,2013-06-22 13:31:00,
2013-06-22 09:36:00,73.3,73.3,30.24,SSE,151,0.0,8.0,100,0.03,,---,0.40,VWS V14.00,2013-06-22 13:36:00,
2013-06-22 09:41:00,73.3,73.3,30.24,SSE,163,1.0,8.0,100,0.03,,---,0.40,VWS V14.00,2013-06-22 13:41:00,
2013-06-22 09:46:00,73.2,73.2,30.24,SSE,159,0.0,8.0,100,0.03,,---,0.41,VWS V14.00,2013-06-22 13:46:00,
2013-06-22 09:51:00,73.1,73.1,30.24,SSE,156,5.0,8.0,100,0.03,,---,0.41,VWS V14.00,2013-06-22 13:51:00,
2013-06-22 09:56:00,73.0,73.0,30.24,SSE,148,7.0,11.0,100,0.03,,---,0.41,VWS V14.00,2013-06-22 13:56:00,
2013-06-22 10:01:00,72.8,72.8,30.24,SE,142,4.0,10.0,100,0.03,,---,0.41,VWS V14.00,2013-06-22 14:01:00,
2013-06-22 10:06:00,72.7,72.7,30.24,SE,126,2.0,10.0,100,0.03,,---,0.42,VWS V14.00,2013-06-22 14:06:00,
2013-06-22 10:11:00,72.6,72.6,30.24,SE,131,6.0,10.0,100,0.03,,---,0.42,VWS V14.00,2013-06-22 14:11:00,
2013-06-22 10:16:00,72.6,72.6,30.24,SE,128,1.0,10.0,100,0.03,,---,0.42,VWS V14.00,2013-06-22 14:16:00,
2013-06-22 10:21:00,72.7,72.7,30.24,SE,133,0.0,10.0,100,0.03,,---,0.42,VWS V14.00,2013-06-22 14:21:00,
2013-06-22 10:26:00,72.8,72.8,30.23,SE,130,0.0,10.0,100,0.03,,---,0.42,VWS V14.00,2013-06-22 14:26:00,
2013-06-22 10:31:00,72.9,72.9,30.23,ESE,116,6.0,6.0,100,0.02,,---,0.42,VWS V14.00,2013-06-22 14:31:00,
2013-06-22 10:36:00,73.0,73.0,30.24,SE,136,0.0,8.0,100,0.02,,---,0.42,VWS V14.00,2013-06-22 14:36:00,
2013-06-22 10:41:00,73.1,73.1,30.24,SSE,148,3.0,10.0,100,0.02,,---,0.42,VWS V14.00,2013-06-22 14:41:00,
2013-06-22 10:46:00,73.2,73.2,30.23,SE,144,5.0,11.0,100,0.02,,---,0.42,VWS V14.00,2013-06-22 14:46:00,
2013-06-22 10:51:00,73.4,73.4,30.23,South,173,6.0,11.0,100,0.02,,---,0.42,VWS V14.00,2013-06-22 14:51:00,
2013-06-22 10:56:00,73.6,73.6,30.24,SSE,147,7.0,12.0,100,0.02,,---,0.42,VWS V14.00,2013-06-22 14:56:00,
2013-06-22 11:01:00,73.6,73.6,30.24,SSE,158,4.0,11.0,100,0.01,,---,0.42,VWS V14.00,2013-06-22 15:01:00,
2013-06-22 11:06:00,73.7,73.7,30.24,SSE,154,11.0,15.0,100,0.01,,---,0.42,VWS V14.00,2013-06-22 15:06:00,
2013-06-22 11:11:00,73.9,73.9,30.24,SSE,153,11.0,15.0,100,0.01,,---,0.42,VWS V14.00,2013-06-22 15:11:00,
2013-06-22 11:16:00,74.0,74.0,30.24,South,169,11.0,18.0,100,0.01,,---,0.42,VWS V14.00,2013-06-22 15:16:00,
2013-06-22 11:21:00,74.0,74.0,30.24,South,177,9.0,19.0,100,0.01,,---,0.42,VWS V14.00,2013-06-22 15:21:00,
2013-06-22 11:26:00,74.1,74.1,30.24,SSE,167,10.0,19.0,100,0.01,,---,0.42,VWS V14.00,2013-06-22 15:26:00,
2013-06-22 11:31:00,74.3,74.3,30.24,SSE,162,7.0,14.0,100,0.02,,---,0.43,VWS V14.00,2013-06-22 15:31:00,
2013-06-22 11:36:00,74.4,74.4,30.24,SSE,161,13.0,16.0,100,0.02,,---,0.43,VWS V14.00,2013-06-22 15:36:00,
2013-06-22 11:41:00,74.6,74.6,30.24,SSE,166,9.0,16.0,100,0.02,,---,0.43,VWS V14.00,2013-06-22 15:41:00,
2013-06-22 11:46:00,74.6,74.6,30.24,South,173,7.0,16.0,100,0.01,,---,0.43,VWS V14.00,2013-06-22 15:46:00,
2013-06-22 11:51:00,74.6,74.6,30.24,South,174,8.0,16.0,100,0.01,,---,0.43,VWS V14.00,2013-06-22 15:51:00,
2013-06-22 11:56:00,74.6,74.6,30.24,South,182,8.0,16.0,100,0.01,,---,0.43,VWS V14.00,2013-06-22 15:56:00,
2013-06-22 12:01:00,74.5,74.5,30.24,SSW,194,12.0,13.0,100,0.01,,---,0.43,VWS V14.00,2013-06-22 16:01:00,
2013-06-22 12:06:00,74.4,74.4,30.24,SSW,200,10.0,20.0,100,0.01,,---,0.43,VWS V14.00,2013-06-22 16:06:00,
2013-06-22 12:11:00,74.3,74.3,30.24,SSW,213,12.0,20.0,100,0.01,,---,0.43,VWS V14.00,2013-06-22 16:11:00,
2013-06-22 12:16:00,73.9,73.9,30.24,SW,219,10.0,20.0,100,0.01,,---,0.43,VWS V14.00,2013-06-22 16:16:00,
2013-06-22 12:21:00,73.8,73.8,30.24,SSW,205,6.0,20.0,100,0.01,,---,0.43,VWS V14.00,2013-06-22 16:21:00,
2013-06-22 12:26:00,74.0,74.0,30.24,SSW,192,4.0,20.0,100,0.01,,---,0.43,VWS V14.00,2013-06-22 16:26:00,
2013-06-22 12:31:00,74.2,74.2,30.24,South,187,2.0,6.0,100,0.01,,---,0.43,VWS V14.00,2013-06-22 16:31:00,
2013-06-22 12:36:00,74.5,74.5,30.24,SSW,194,4.0,8.0,100,0.01,,---,0.43,VWS V14.00,2013-06-22 16:36:00,
2013-06-22 12:41:00,74.8,74.8,30.24,SSE,160,6.0,8.0,100,0.01,,---,0.43,VWS V14.00,2013-06-22 16:41:00,
2013-06-22 12:46:00,75.0,75.0,30.24,SSE,160,9.0,9.0,100,0.01,,---,0.43,VWS V14.00,2013-06-22 16:46:00,
2013-06-22 12:51:00,75.2,75.2,30.24,SSE,151,5.0,9.0,100,0.00,,---,0.43,VWS V14.00,2013-06-22 16:51:00,
2013-06-22 12:56:00,75.4,75.4,30.24,SE,145,5.0,9.0,100,0.00,,---,0.43,VWS V14.00,2013-06-22 16:56:00,
2013-06-22 13:01:00,75.5,75.5,30.24,SSE,150,5.0,7.0,100,0.00,,---,0.43,VWS V14.00,2013-06-22 17:01:00,
2013-06-22 13:06:00,75.5,75.5,30.24,SE,125,2.0,16.0,100,0.00,,---,0.43,VWS V14.00,2013-06-22 17:06:00,
2013-06-22 13:11:00,75.6,75.6,30.24,SSE,152,8.0,16.0,100,0.00,,---,0.43,VWS V14.00,2013-06-22 17:11:00,
2013-06-22 13:16:00,75.8,75.8,30.25,SSE,148,13.0,16.0,100,0.00,,---,0.43,VWS V14.00,2013-06-22 17:16:00,
2013-06-22 13:21:00,76.1,76.1,30.24,SE,138,6.0,16.0,100,0.00,,---,0.43,VWS V14.00,2013-06-22 17:21:00,
2013-06-22 13:26:00,76.2,76.2,30.24,SE,125,4.0,16.0,100,0.00,,---,0.43,VWS V14.00,2013-06-22 17:26:00,
2013-06-22 13:31:00,76.3,76.3,30.24,ESE,115,4.0,6.0,100,0.00,,---,0.43,VWS V14.00,2013-06-22 17:31:00,
2013-06-22 13:36:00,76.6,76.6,30.24,ESE,122,6.0,13.0,100,0.00,,---,0.43,VWS V14.00,2013-06-22 17:36:00,
2013-06-22 13:41:00,76.7,76.7,30.24,SSE,148,9.0,13.0,100,0.00,,---,0.43,VWS V14.00,2013-06-22 17:41:00,
2013-06-22 13:46:00,76.8,76.8,30.24,SE,139,6.0,13.0,100,0.00,,---,0.43,VWS V14.00,2013-06-22 17:46:00,
2013-06-22 13:51:00,77.0,77.0,30.24,SE,124,3.0,13.0,100,0.00,,---,0.43,VWS V14.00,2013-06-22 17:51:00,
2013-06-22 13:56:00,77.2,77.2,30.24,SE,142,2.0,13.0,100,0.00,,---,0.43,VWS V14.00,2013-06-22 17:56:00,
2013-06-22 14:01:00,77.2,77.2,30.24,SSE,152,4.0,11.0,100,0.00,,---,0.43,VWS V14.00,2013-06-22 18:01:00,
2013-06-22 14:06:00,77.1,77.1,30.24,SE,143,5.0,14.0,100,0.00,,---,0.43,VWS V14.00,2013-06-22 18:06:00,
2013-06-22 14:11:00,77.1,77.1,30.23,ESE,122,5.0,14.0,100,0.00,,---,0.43,VWS V14.00,2013-06-22 18:11:00,
2013-06-22 14:16:00,77.1,77.1,30.23,ESE,119,6.0,14.0,100,0.00,,---,0.43,VWS V14.00,2013-06-22 18:16:00,
2013-06-22 14:21:00,77.0,77.0,30.23,SSE,158,4.0,14.0,100,0.00,,---,0.43,VWS V14.00,2013-06-22 18:21:00,
2013-06-22 14:26:00,76.9,76.9,30.23,SE,124,7.0,14.0,100,0.00,,---,0.43,VWS V14.00,2013-06-22 18:26:00,
2013-06-22 14:31:00,76.8,76.8,30.23,ESE,105,2.0,7.0,100,0.00,,---,0.43,VWS V14.00,2013-06-22 18:31:00,
2013-06-22 14:36:00,76.5,76.5,30.24,ESE,123,3.0,8.0,100,0.00,,---,0.43,VWS V14.00,2013-06-22 18:36:00,
2013-06-22 14:41:00,76.2,76.2,30.24,SE,142,2.0,8.0,100,0.07,,---,0.50,VWS V14.00,2013-06-22 18:41:00,
2013-06-22 14:46:00,75.9,75.9,30.24,SSE,151,4.0,9.0,100,0.13,,---,0.57,VWS V14.00,2013-06-22 18:46:00,
2013-06-22 14:51:00,75.4,75.4,30.24,East,97,3.0,9.0,100,0.17,,---,0.62,VWS V14.00,2013-06-22 18:51:00,
2013-06-22 14:56:00,75.0,75.0,30.23,SE,131,4.0,10.0,100,0.15,,---,0.62,VWS V14.00,2013-06-22 18:56:00,
2013-06-22 15:01:00,74.7,74.7,30.23,ESE,115,3.0,5.0,100,0.15,,---,0.63,VWS V14.00,2013-06-22 19:01:00,
2013-06-22 15:06:00,74.4,74.4,30.23,SE,131,1.0,8.0,100,0.15,,---,0.64,VWS V14.00,2013-06-22 19:06:00,
2013-06-22 15:11:00,74.3,74.3,30.23,SE,145,3.0,8.0,100,0.15,,---,0.65,VWS V14.00,2013-06-22 19:11:00,
2013-06-22 15:16:00,74.3,74.3,30.23,ESE,121,1.0,8.0,100,0.13,,---,0.65,VWS V14.00,2013-06-22 19:16:00,
2013-06-22 15:21:00,74.3,74.3,30.23,East,95,3.0,8.0,100,0.13,,---,0.66,VWS V14.00,2013-06-22 19:21:00,
2013-06-22 15:26:00,74.3,74.3,30.23,ESE,119,0.0,8.0,100,0.13,,---,0.67,VWS V14.00,2013-06-22 19:26:00,
2013-06-22 15:31:00,74.3,74.3,30.23,SE,125,0.0,6.0,100,0.12,,---,0.67,VWS V14.00,2013-06-22 19:31:00,
2013-06-22 15:36:00,74.3,74.3,30.22,ESE,118,1.0,7.0,100,0.12,,---,0.68,VWS V14.00,2013-06-22 19:36:00,
2013-06-22 15:41:00,74.2,74.2,30.22,SE,132,0.0,7.0,100,0.11,,---,0.68,VWS V14.00,2013-06-22 19:41:00,
2013-06-22 15:46:00,74.1,74.1,30.22,SE,130,0.0,7.0,100,0.11,,---,0.69,VWS V14.00,2013-06-22 19:46:00,
2013-06-22 15:51:00,74.1,74.1,30.22,ESE,119,0.0,7.0,100,0.10,,---,0.69,VWS V14.00,2013-06-22 19:51:00,
2013-06-22 15:56:00,74.1,74.1,30.22,ESE,122,8.0,10.0,100,0.10,,---,0.69,VWS V14.00,2013-06-22 19:56:00,
2013-06-22 16:01:00,74.1,74.1,30.22,SE,130,0.0,5.0,100,0.09,,---,0.69,VWS V14.00,2013-06-22 20:01:00,
2013-06-22 16:06:00,74.2,74.2,30.22,SE,140,2.0,10.0,100,0.08,,---,0.69,VWS V14.00,2013-06-22 20:06:00,
2013-06-22 16:11:00,74.3,74.3,30.22,SE,124,4.0,10.0,100,0.07,,---,0.69,VWS V14.00,2013-06-22 20:11:00,
2013-06-22 16:16:00,74.3,74.3,30.22,SE,136,3.0,10.0,100,0.07,,---,0.69,VWS V14.00,2013-06-22 20:16:00,
2013-06-22 16:21:00,74.4,74.4,30.22,ESE,122,3.0,10.0,100,0.06,,---,0.69,VWS V14.00,2013-06-22 20:21:00,
2013-06-22 16:26:00,74.4,74.4,30.22,SE,140,4.0,11.0,100,0.06,,---,0.69,VWS V14.00,2013-06-22 20:26:00,
2013-06-22 16:31:00,74.4,74.4,30.22,ESE,114,4.0,7.0,100,0.05,,---,0.69,VWS V14.00,2013-06-22 20:31:00,
2013-06-22 16:36:00,74.5,74.5,30.22,SSE,147,0.0,9.0,100,0.05,,---,0.69,VWS V14.00,2013-06-22 20:36:00,
2013-06-22 16:41:00,74.5,74.5,30.22,ESE,104,4.0,9.0,100,0.05,,---,0.69,VWS V14.00,2013-06-22 20:41:00,
2013-06-22 16:46:00,74.7,74.7,30.22,ESE,114,5.0,9.0,100,0.04,,---,0.69,VWS V14.00,2013-06-22 20:46:00,
2013-06-22 16:51:00,74.7,74.7,30.22,ESE,122,5.0,9.0,100,0.04,,---,0.69,VWS V14.00,2013-06-22 20:51:00,
2013-06-22 16:56:00,74.6,74.6,30.22,SE,124,6.0,9.0,100,0.04,,---,0.69,VWS V14.00,2013-06-22 20:56:00,
2013-06-22 17:01:00,74.6,74.6,30.22,ESE,117,2.0,5.0,100,0.03,,---,0.69,VWS V14.00,2013-06-22 21:01:00,
2013-06-22 17:06:00,74.7,74.7,30.21,ESE,112,4.0,7.0,100,0.03,,---,0.69,VWS V14.00,2013-06-22 21:06:00,
2013-06-22 17:11:00,74.7,74.7,30.22,ESE,102,6.0,8.0,100,0.03,,---,0.69,VWS V14.00,2013-06-22 21:11:00,
2013-06-22 17:16:00,74.9,74.9,30.21,ESE,105,7.0,8.0,100,0.03,,---,0.69,VWS V14.00,2013-06-22 21:16:00,
2013-06-22 17:21:00,75.0,75.0,30.21,SE,125,6.0,11.0,100,0.02,,---,0.69,VWS V14.00,2013-06-22 21:21:00,
2013-06-22 17:26:00,75.0,75.0,30.21,ESE,122,2.0,12.0,100,0.02,,---,0.69,VWS V14.00,2013-06-22 21:26:00,
2013-06-22 17:31:00,75.0,75.0,30.21,ESE,112,6.0,11.0,100,0.02,,---,0.69,VWS V14.00,2013-06-22 21:31:00,
2013-06-22 17:36:00,75.1,75.1,30.21,ESE,108,7.0,13.0,100,0.02,,---,0.69,VWS V14.00,2013-06-22 21:36:00,
2013-06-22 17:41:00,75.0,75.0,30.21,ESE,122,5.0,13.0,100,0.02,,---,0.69,VWS V14.00,2013-06-22 21:41:00,
2013-06-22 17:46:00,75.0,75.0,30.22,ESE,110,5.0,13.0,100,0.02,,---,0.69,VWS V14.00,2013-06-22 21:46:00,
2013-06-22 17:51:00,75.0,75.0,30.21,ESE,115,5.0,13.0,100,0.01,,---,0.69,VWS V14.00,2013-06-22 21:51:00,
2013-06-22 17:56:00,75.0,75.0,30.21,SE,134,3.0,13.0,100,0.01,,---,0.69,VWS V14.00,2013-06-22 21:56:00,
2013-06-22 18:01:00,75.1,75.1,30.21,SE,137,8.0,9.0,100,0.01,,---,0.69,VWS V14.00,2013-06-22 22:01:00,
2013-06-22 18:06:00,75.2,75.2,30.21,ESE,120,6.0,12.0,100,0.01,,---,0.69,VWS V14.00,2013-06-22 22:06:00,
2013-06-22 18:11:00,75.2,75.2,30.21,SE,124,7.0,13.0,100,0.01,,---,0.69,VWS V14.00,2013-06-22 22:11:00,
2013-06-22 18:16:00,75.2,75.2,30.20,SSE,162,3.0,13.0,100,0.01,,---,0.69,VWS V14.00,2013-06-22 22:16:00,
2013-06-22 18:21:00,75.3,75.3,30.20,SE,125,9.0,13.0,100,0.01,,---,0.69,VWS V14.00,2013-06-22 22:21:00,
2013-06-22 18:26:00,75.3,75.3,30.20,SE,142,5.0,14.0,100,0.01,,---,0.69,VWS V14.00,2013-06-22 22:26:00,
2013-06-22 18:31:00,75.2,75.2,30.20,SSE,158,7.0,9.0,100,0.01,,---,0.69,VWS V14.00,2013-06-22 22:31:00,
2013-06-22 18:36:00,75.2,75.2,30.20,SE,145,8.0,12.0,100,0.01,,---,0.69,VWS V14.00,2013-06-22 22:36:00,
2013-06-22 18:41:00,75.1,75.1,30.20,SE,146,6.0,15.0,100,0.01,,---,0.69,VWS V14.00,2013-06-22 22:41:00,
2013-06-22 18:46:00,75.1,75.1,30.19,SE,125,6.0,15.0,100,0.01,,---,0.69,VWS V14.00,2013-06-22 22:46:00,
2013-06-22 18:51:00,75.1,75.1,30.19,SE,146,8.0,15.0,100,0.01,,---,0.69,VWS V14.00,2013-06-22 22:51:00,
2013-06-22 18:56:00,75.0,75.0,30.19,SSE,149,5.0,17.0,100,0.00,,---,0.69,VWS V14.00,2013-06-22 22:56:00,
2013-06-22 19:01:00,74.9,74.9,30.20,ESE,120,3.0,12.0,100,0.00,,---,0.69,VWS V14.00,2013-06-22 23:01:00,
2013-06-22 19:06:00,74.9,74.9,30.20,SSE,152,13.0,13.0,100,0.00,,---,0.69,VWS V14.00,2013-06-22 23:06:00,
2013-06-22 19:11:00,74.8,74.8,30.20,SE,146,6.0,17.0,100,0.00,,---,0.69,VWS V14.00,2013-06-22 23:11:00,
2013-06-22 19:16:00,74.7,74.7,30.20,SSE,148,10.0,17.0,100,0.00,,---,0.69,VWS V14.00,2013-06-22 23:16:00,
2013-06-22 19:21:00,74.7,74.7,30.20,SE,144,7.0,17.0,100,0.00,,---,0.69,VWS V14.00,2013-06-22 23:21:00,
2013-06-22 19:26:00,74.5,74.5,30.20,SSE,152,14.0,17.0,100,0.00,,---,0.69,VWS V14.00,2013-06-22 23:26:00,
2013-06-22 19:31:00,74.4,74.4,30.20,SSE,159,6.0,11.0,100,0.00,,---,0.69,VWS V14.00,2013-06-22 23:31:00,
2013-06-22 19:36:00,74.3,74.3,30.20,SSE,152,9.0,15.0,100,0.00,,---,0.69,VWS V14.00,2013-06-22 23:36:00,
2013-06-22 19:41:00,74.3,74.3,30.19,SSE,158,6.0,15.0,100,0.00,,---,0.69,VWS V14.00,2013-06-22 23:41:00,
2013-06-22 19:46:00,74.2,74.2,30.20,SSE,154,3.0,15.0,100,0.00,,---,0.69,VWS V14.00,2013-06-22 23:46:00,
2013-06-22 19:51:00,74.1,74.1,30.19,SE,146,4.0,15.0,100,0.00,,---,0.69,VWS V14.00,2013-06-22 23:51:00,
2013-06-22 19:56:00,74.0,74.0,30.19,SSE,156,7.0,15.0,100,0.00,,---,0.69,VWS V14.00,2013-06-22 23:56:00,
2013-06-22 20:01:00,74.0,74.0,30.20,SSE,161,5.0,8.0,100,0.00,,---,0.69,VWS V14.00,2013-06-23 00:01:00,
2013-06-22 20:06:00,73.9,73.9,30.19,SE,144,10.0,14.0,100,0.00,,---,0.69,VWS V14.00,2013-06-23 00:06:00,
2013-06-22 20:11:00,73.9,73.9,30.20,SSE,151,5.0,14.0,100,0.00,,---,0.69,VWS V14.00,2013-06-23 00:11:00,
2013-06-22 20:16:00,73.9,73.9,30.20,SSE,156,7.0,14.0,100,0.00,,---,0.69,VWS V14.00,2013-06-23 00:16:00,
2013-06-22 20:21:00,73.8,73.8,30.20,SSE,164,9.0,16.0,100,0.00,,---,0.69,VWS V14.00,2013-06-23 00:21:00,
2013-06-22 20:26:00,73.7,73.7,30.19,SSE,150,7.0,16.0,100,0.00,,---,0.69,VWS V14.00,2013-06-23 00:26:00,
2013-06-22 20:31:00,73.7,73.7,30.19,SSE,164,7.0,14.0,100,0.00,,---,0.69,VWS V14.00,2013-06-23 00:31:00,
2013-06-22 20:36:00,73.6,73.6,30.19,SSE,156,11.0,15.0,100,0.00,,---,0.69,VWS V14.00,2013-06-23 00:36:00,
2013-06-22 20:41:00,73.6,73.6,30.19,SSE,155,11.0,15.0,100,0.00,,---,0.69,VWS V14.00,2013-06-23 00:41:00,
2013-06-22 20:46:00,73.6,73.6,30.19,SSE,150,9.0,15.0,100,0.00,,---,0.69,VWS V14.00,2013-06-23 00:46:00,
2013-06-22 20:51:00,73.6,73.6,30.19,SSE,162,12.0,17.0,100,0.00,,---,0.69,VWS V14.00,2013-06-23 00:51:00,
2013-06-22 20:56:00,73.6,73.6,30.19,SE,146,12.0,17.0,100,0.00,,---,0.69,VWS V14.00,2013-06-23 00:56:00,
2013-06-22 21:01:00,73.7,73.7,30.20,SSE,154,7.0,10.0,100,0.00,,---,0.69,VWS V14.00,2013-06-23 01:01:00,
2013-06-22 21:06:00,73.7,73.7,30.20,SSE,153,9.0,17.0,100,0.00,,---,0.69,VWS V14.00,2013-06-23 01:06:00,
2013-06-22 21:11:00,73.7,73.7,30.20,SSE,161,0.0,17.0,100,0.00,,---,0.69,VWS V14.00,2013-06-23 01:11:00,
2013-06-22 21:16:00,73.7,73.7,30.20,SSE,167,9.0,17.0,100,0.00,,---,0.69,VWS V14.00,2013-06-23 01:16:00,
2013-06-22 21:21:00,73.7,73.7,30.20,SSE,150,4.0,17.0,100,0.00,,---,0.69,VWS V14.00,2013-06-23 01:21:00,
2013-06-22 21:26:00,73.8,73.8,30.20,SSE,163,7.0,17.0,100,0.00,,---,0.69,VWS V14.00,2013-06-23 01:26:00,
2013-06-22 21:31:00,73.8,73.8,30.20,SSE,155,9.0,10.0,100,0.00,,---,0.69,VWS V14.00,2013-06-23 01:31:00,
2013-06-22 21:36:00,73.9,73.9,30.20,SSE,161,9.0,11.0,100,0.00,,---,0.69,VWS V14.00,2013-06-23 01:36:00,
2013-06-22 21:41:00,73.9,73.9,30.21,SSE,164,10.0,14.0,100,0.00,,---,0.69,VWS V14.00,2013-06-23 01:41:00,
2013-06-22 21:46:00,73.9,73.9,30.20,SSE,156,6.0,14.0,100,0.00,,---,0.69,VWS V14.00,2013-06-23 01:46:00,
2013-06-22 21:51:00,73.9,73.9,30.20,SSE,158,6.0,14.0,100,0.00,,---,0.69,VWS V14.00,2013-06-23 01:51:00,
2013-06-22 21:56:00,73.9,73.9,30.20,SSE,161,9.0,14.0,100,0.00,,---,0.69,VWS V14.00,2013-06-23 01:56:00,
2013-06-22 22:01:00,74.0,74.0,30.20,SSE,162,10.0,14.0,100,0.00,,---,0.69,VWS V14.00,2013-06-23 02:01:00,
2013-06-22 22:06:00,74.0,74.0,30.20,SSE,149,7.0,14.0,100,0.00,,---,0.69,VWS V14.00,2013-06-23 02:06:00,
2013-06-22 22:11:00,74.0,74.0,30.21,SSE,156,8.0,15.0,100,0.00,,---,0.69,VWS V14.00,2013-06-23 02:11:00,
2013-06-22 22:16:00,74.0,74.0,30.21,South,175,6.0,15.0,100,0.00,,---,0.69,VWS V14.00,2013-06-23 02:16:00,
2013-06-22 22:21:00,74.0,74.0,30.21,SSE,167,6.0,15.0,100,0.00,,---,0.69,VWS V14.00,2013-06-23 02:21:00,
2013-06-22 22:26:00,74.0,74.0,30.21,South,169,0.0,15.0,100,0.00,,---,0.69,VWS V14.00,2013-06-23 02:26:00,
2013-06-22 22:31:00,74.0,74.0,30.21,SSE,163,9.0,11.0,100,0.00,,---,0.69,VWS V14.00,2013-06-23 02:31:00,
2013-06-22 22:36:00,74.0,74.0,30.21,SSE,158,13.0,14.0,100,0.00,,---,0.69,VWS V14.00,2013-06-23 02:36:00,
2013-06-22 22:41:00,74.0,74.0,30.22,SSE,156,5.0,14.0,100,0.00,,---,0.69,VWS V14.00,2013-06-23 02:41:00,
2013-06-22 22:46:00,74.1,74.1,30.21,SSE,160,11.0,14.0,100,0.00,,---,0.69,VWS V14.00,2013-06-23 02:46:00,
2013-06-22 22:50:00,74.1,74.1,30.21,South,170,7.0,14.0,100,0.00,,---,0.69,VWS V14.00,2013-06-23 02:50:00,
2013-06-22 22:55:00,74.1,74.1,30.21,South,172,6.0,14.0,100,0.00,,---,0.69,VWS V14.00,2013-06-23 02:55:00,
2013-06-22 23:00:00,74.1,74.1,30.22,South,169,7.0,16.0,100,0.00,,---,0.69,VWS V14.00,2013-06-23 03:00:00,
2013-06-22 23:05:00,74.1,74.1,30.21,SSE,162,5.0,16.0,100,0.00,,---,0.69,VWS V14.00,2013-06-23 03:05:00,
2013-06-22 23:10:00,74.1,74.1,30.21,SSE,163,9.0,16.0,100,0.00,,---,0.69,VWS V14.00,2013-06-23 03:10:00,
2013-06-22 23:15:00,74.1,74.1,30.21,SSE,168,8.0,16.0,100,0.00,,---,0.69,VWS V14.00,2013-06-23 03:15:00,
2013-06-22 23:20:00,74.1,74.1,30.21,SSE,165,13.0,16.0,100,0.00,,---,0.69,VWS V14.00,2013-06-23 03:20:00,
2013-06-22 23:25:00,74.1,74.1,30.21,SSE,159,7.0,16.0,100,0.00,,---,0.69,VWS V14.00,2013-06-23 03:25:00,
2013-06-22 23:30:00,74.1,74.1,30.20,South,174,7.0,11.0,100,0.00,,---,0.69,VWS V14.00,2013-06-23 03:30:00,
2013-06-22 23:35:00,74.1,74.1,30.20,SSE,167,3.0,14.0,100,0.00,,---,0.69,VWS V14.00,2013-06-23 03:35:00,
2013-06-22 23:40:00,74.1,74.1,30.20,South,188,3.0,14.0,100,0.00,,---,0.69,VWS V14.00,2013-06-23 03:40:00,
2013-06-22 23:45:00,74.2,74.2,30.21,South,170,0.0,14.0,100,0.00,,---,0.69,VWS V14.00,2013-06-23 03:45:00,
2013-06-22 23:50:00,74.2,74.2,30.21,South,176,3.0,14.0,100,0.00,,---,0.69,VWS V14.00,2013-06-23 03:50:00,
2013-06-22 23:55:00,74.2,74.2,30.21,SSE,168,3.0,14.0,100,0.00,,---,0.69,VWS V14.00,2013-06-23 03:55:00,